createdAt,value
2022-08-25T00:01:49.877Z,3.08
2022-08-25T00:04:18.187Z,3.35
2022-08-25T00:06:46.173Z,3.28
2022-08-25T00:09:16.297Z,3.40
2022-08-25T00:11:43.472Z,3.20
2022-08-25T00:14:14.628Z,3.20
2022-08-25T00:16:41.230Z,3.30
2022-08-25T00:19:12.245Z,3.85
2022-08-25T00:24:08.900Z,3.30
2022-08-25T00:26:39.726Z,3.10
2022-08-25T00:29:06.834Z,3.35
2022-08-25T00:31:38.713Z,3.00
2022-08-25T00:34:09.569Z,3.47
2022-08-25T00:36:36.820Z,3.03
2022-08-25T00:39:04.642Z,4.03
2022-08-25T00:41:31.420Z,3.00
2022-08-25T00:44:01.269Z,3.40
2022-08-25T00:46:31.622Z,3.38
2022-08-25T00:49:05.726Z,3.80
2022-08-25T00:51:50.842Z,3.20
2022-08-25T00:54:24.615Z,3.75
2022-08-25T00:56:51.985Z,3.45
2022-08-25T00:59:21.220Z,3.20
2022-08-25T01:01:48.033Z,3.42
2022-08-25T01:04:14.860Z,4.07
2022-08-25T01:06:44.420Z,3.45
2022-08-25T01:09:13.968Z,3.42
2022-08-25T01:11:44.801Z,3.47
2022-08-25T01:14:15.896Z,3.60
2022-08-25T01:16:43.682Z,3.83
2022-08-25T01:19:15.151Z,3.45
2022-08-25T01:21:48.366Z,3.35
2022-08-25T01:24:29.393Z,3.00
2022-08-25T01:26:55.817Z,3.30
2022-08-25T01:29:22.457Z,3.85
2022-08-25T01:31:51.008Z,3.30
2022-08-25T01:34:19.475Z,3.70
2022-08-25T01:36:46.113Z,3.70
2022-08-25T01:39:13.451Z,3.20
2022-08-25T01:41:58.351Z,3.38
2022-08-25T01:44:25.837Z,4.38
2022-08-25T01:46:52.953Z,3.30
2022-08-25T01:49:19.350Z,3.40
2022-08-25T01:51:53.403Z,3.38
2022-08-25T01:54:20.260Z,3.65
2022-08-25T01:56:47.077Z,3.65
2022-08-25T01:59:18.926Z,3.78
2022-08-25T02:01:50.685Z,3.30
2022-08-25T02:04:17.196Z,3.15
2022-08-25T02:09:49.234Z,3.53
2022-08-25T02:12:15.685Z,3.35
2022-08-25T02:14:42.123Z,3.88
2022-08-25T02:17:09.738Z,3.70
2022-08-25T02:19:36.121Z,3.50
2022-08-25T02:22:02.601Z,3.50
2022-08-25T02:24:29.074Z,4.28
2022-08-25T02:26:55.646Z,3.50
2022-08-25T02:29:22.089Z,3.88
2022-08-25T02:31:48.632Z,3.58
2022-08-25T02:34:15.994Z,4.10
2022-08-25T02:36:43.697Z,3.88
2022-08-25T02:39:11.708Z,4.38
2022-08-25T02:41:39.052Z,4.07
2022-08-25T02:44:07.943Z,3.92
2022-08-25T02:46:35.218Z,3.78
2022-08-25T02:49:01.740Z,3.63
2022-08-25T02:51:29.998Z,3.60
2022-08-25T02:53:58.583Z,4.40
2022-08-25T02:56:25.792Z,4.32
2022-08-25T02:58:52.269Z,3.60
2022-08-25T03:01:18.770Z,3.83
2022-08-25T03:03:46.192Z,3.72
2022-08-25T03:06:17.345Z,3.97
2022-08-25T03:11:11.665Z,4.25
2022-08-25T03:13:38.255Z,3.85
2022-08-25T03:16:10.977Z,4.40
2022-08-25T03:18:39.418Z,4.38
2022-08-25T03:21:06.997Z,4.00
2022-08-25T03:23:33.386Z,4.50
2022-08-25T03:26:18.447Z,3.90
2022-08-25T03:28:44.901Z,4.00
2022-08-25T03:31:11.332Z,4.47
2022-08-25T03:33:38.336Z,4.05
2022-08-25T03:36:06.318Z,3.85
2022-08-25T03:38:32.951Z,4.15
2022-08-25T03:40:59.440Z,4.35
2022-08-25T03:43:25.852Z,3.72
2022-08-25T03:45:52.446Z,3.72
2022-08-25T03:48:18.879Z,3.78
2022-08-25T03:50:51.545Z,3.85
2022-08-25T03:53:19.992Z,4.00
2022-08-25T03:55:46.899Z,4.03
2022-08-25T03:58:13.950Z,4.50
2022-08-25T04:00:40.625Z,4.47
2022-08-25T04:03:07.172Z,4.40
2022-08-25T04:05:33.813Z,4.30
2022-08-25T04:08:01.797Z,3.85
2022-08-25T04:10:29.282Z,4.03
2022-08-25T04:12:56.055Z,4.10
2022-08-25T04:15:23.922Z,3.70
2022-08-25T04:17:58.701Z,4.60
2022-08-25T04:20:25.134Z,4.65
2022-08-25T04:22:51.606Z,5.13
2022-08-25T04:25:18.057Z,4.20
2022-08-25T04:27:44.463Z,4.18
2022-08-25T04:30:11.453Z,3.67
2022-08-25T04:32:37.898Z,4.35
2022-08-25T04:35:05.209Z,4.70
2022-08-25T04:37:33.271Z,5.15
2022-08-25T04:39:59.806Z,4.75
2022-08-25T04:42:27.022Z,4.88
2022-08-25T04:44:54.323Z,5.03
2022-08-25T04:47:20.776Z,4.53
2022-08-25T04:49:47.305Z,4.90
2022-08-25T04:52:14.525Z,5.78
2022-08-25T04:54:41.632Z,5.45
2022-08-25T04:57:08.051Z,5.60
2022-08-25T04:59:34.445Z,5.40
2022-08-25T05:02:02.995Z,5.03
2022-08-25T05:04:31.204Z,5.63
2022-08-25T05:06:58.522Z,4.63
2022-08-25T05:09:25.742Z,4.65
2022-08-25T05:11:53.022Z,5.00
2022-08-25T05:14:25.642Z,5.60
2022-08-25T05:17:19.066Z,5.47
2022-08-25T05:19:45.573Z,5.60
2022-08-25T05:22:12.279Z,5.90
2022-08-25T05:24:38.681Z,6.80
2022-08-25T05:27:05.474Z,6.05
2022-08-25T05:29:31.877Z,7.78
2022-08-25T05:31:58.297Z,8.27
2022-08-25T05:34:25.654Z,8.68
2022-08-25T05:36:52.125Z,8.65
2022-08-25T05:39:18.706Z,8.48
2022-08-25T05:41:45.137Z,8.98
2022-08-25T05:44:12.728Z,9.95
2022-08-25T05:46:39.158Z,8.93
2022-08-25T05:49:05.654Z,9.45
2022-08-25T05:51:32.052Z,7.45
2022-08-25T05:53:58.514Z,8.13
2022-08-25T05:56:24.929Z,8.52
2022-08-25T05:58:51.378Z,8.55
2022-08-25T06:01:45.569Z,10.32
2022-08-25T06:04:13.330Z,13.30
2022-08-25T06:06:40.619Z,14.25
2022-08-25T06:09:09.343Z,14.75
2022-08-25T06:11:37.918Z,11.93
2022-08-25T06:14:04.683Z,12.18
2022-08-25T06:16:31.521Z,9.05
2022-08-25T06:18:58.034Z,9.82
2022-08-25T06:21:25.222Z,8.13
2022-08-25T06:23:51.606Z,8.07
2022-08-25T06:26:21.039Z,9.27
2022-08-25T06:28:48.129Z,9.95
2022-08-25T06:31:14.722Z,8.85
2022-08-25T06:33:41.181Z,8.27
2022-08-25T06:36:08.603Z,7.72
2022-08-25T06:38:35.386Z,7.63
2022-08-25T06:41:04.252Z,6.57
2022-08-25T06:43:31.125Z,7.05
2022-08-25T06:45:57.489Z,6.78
2022-08-25T06:48:23.952Z,5.85
2022-08-25T06:50:50.530Z,5.85
2022-08-25T06:53:16.966Z,6.05
2022-08-25T06:55:43.342Z,5.90
2022-08-25T06:58:11.105Z,5.68
2022-08-25T07:00:38.161Z,5.57
2022-08-25T07:03:04.967Z,5.28
2022-08-25T07:05:42.937Z,5.32
2022-08-25T07:08:11.782Z,5.40
2022-08-25T07:10:38.771Z,6.05
2022-08-25T07:13:05.266Z,5.68
2022-08-25T07:15:31.667Z,5.50
2022-08-25T07:17:58.240Z,5.50
2022-08-25T07:22:57.935Z,5.13
2022-08-25T07:25:24.426Z,5.30
2022-08-25T07:27:50.901Z,5.57
2022-08-25T07:30:17.691Z,5.40
2022-08-25T07:32:44.138Z,4.75
2022-08-25T07:35:18.817Z,5.70
2022-08-25T07:37:50.622Z,6.28
2022-08-25T07:40:23.271Z,5.40
2022-08-25T07:42:52.223Z,5.72
2022-08-25T07:45:20.699Z,6.80
2022-08-25T07:47:47.895Z,6.40
2022-08-25T07:50:14.662Z,6.35
2022-08-25T07:52:41.419Z,5.88
2022-08-25T07:55:08.487Z,6.07
2022-08-25T07:57:40.274Z,6.97
2022-08-25T08:00:08.279Z,6.22
2022-08-25T08:02:39.663Z,6.57
2022-08-25T08:05:09.687Z,5.47
2022-08-25T08:07:43.520Z,5.25
2022-08-25T08:10:42.403Z,6.03
2022-08-25T08:12:59.260Z,6.68
2022-08-25T08:15:25.914Z,5.75
2022-08-25T08:17:56.175Z,6.72
2022-08-25T08:20:24.642Z,6.35
2022-08-25T08:22:51.096Z,6.90
2022-08-25T08:25:21.348Z,6.82
2022-08-25T08:27:54.822Z,6.53
2022-08-25T08:30:22.242Z,6.53
2022-08-25T08:35:36.906Z,7.30
2022-08-25T08:38:05.448Z,6.10
2022-08-25T08:41:07.751Z,6.78
2022-08-25T08:43:35.262Z,7.13
2022-08-25T08:46:03.899Z,7.10
2022-08-25T08:48:47.411Z,7.32
2022-08-25T08:51:25.118Z,8.18
2022-08-25T08:54:00.948Z,7.28
2022-08-25T08:56:45.258Z,7.07
2022-08-25T08:59:22.144Z,7.68
2022-08-25T09:02:00.435Z,7.22
2022-08-25T09:04:37.367Z,7.88
2022-08-25T09:07:10.938Z,7.78
2022-08-25T09:09:40.920Z,7.20
2022-08-25T09:12:17.132Z,6.85
2022-08-25T09:15:01.499Z,7.57
2022-08-25T09:18:05.991Z,8.02
2022-08-25T09:20:54.893Z,7.97
2022-08-25T09:23:36.266Z,8.10
2022-08-25T09:26:36.302Z,8.25
2022-08-25T09:29:14.684Z,7.88
2022-08-25T09:31:43.553Z,8.43
2022-08-25T09:34:21.211Z,7.88
2022-08-25T09:36:50.681Z,7.70
2022-08-25T09:39:17.947Z,7.55
2022-08-25T09:41:51.971Z,8.43
2022-08-25T09:44:26.028Z,7.57
2022-08-25T09:47:15.374Z,7.63
2022-08-25T09:50:06.847Z,7.45
2022-08-25T09:52:38.606Z,8.00
2022-08-25T09:55:08.150Z,7.60
2022-08-25T09:57:44.874Z,6.75
2022-08-25T10:00:22.395Z,7.30
2022-08-25T10:03:17.967Z,7.30
2022-08-25T10:05:56.369Z,7.47
2022-08-25T10:08:56.128Z,6.97
2022-08-25T10:11:37.913Z,6.45
2022-08-25T10:14:15.021Z,6.78
2022-08-25T10:16:41.622Z,7.50
2022-08-25T10:19:27.899Z,7.25
2022-08-25T10:22:08.689Z,7.30
2022-08-25T10:24:38.526Z,7.63
2022-08-25T10:27:23.355Z,6.75
2022-08-25T10:30:02.902Z,7.72
2022-08-25T10:33:03.727Z,7.15
2022-08-25T10:36:02.616Z,7.18
2022-08-25T10:38:43.066Z,6.82
2022-08-25T10:41:53.479Z,7.05
2022-08-25T10:45:16.215Z,6.53
2022-08-25T10:48:06.419Z,7.15
2022-08-25T10:50:51.190Z,6.95
2022-08-25T10:53:27.869Z,7.10
2022-08-25T10:56:14.999Z,8.48
2022-08-25T10:58:56.022Z,7.63
2022-08-25T11:01:47.113Z,7.28
2022-08-25T11:04:26.206Z,8.18
2022-08-25T11:07:26.810Z,6.50
2022-08-25T11:10:00.251Z,6.82
2022-08-25T11:12:38.553Z,7.05
2022-08-25T11:15:20.900Z,6.85
2022-08-25T11:18:15.005Z,6.95
2022-08-25T11:20:59.825Z,7.25
2022-08-25T11:23:42.085Z,6.60
2022-08-25T11:26:28.918Z,7.18
2022-08-25T11:29:14.228Z,6.82
2022-08-25T11:31:49.599Z,6.30
2022-08-25T11:34:20.422Z,6.75
2022-08-25T11:36:55.079Z,6.32
2022-08-25T11:39:42.622Z,6.28
2022-08-25T11:42:29.991Z,5.72
2022-08-25T11:45:36.085Z,5.22
2022-08-25T11:48:10.973Z,6.53
2022-08-25T11:50:57.809Z,6.10
2022-08-25T11:53:42.095Z,5.90
2022-08-25T11:56:31.985Z,5.78
2022-08-25T11:58:59.475Z,5.15
2022-08-25T12:01:32.603Z,5.50
2022-08-25T12:04:15.100Z,5.88
2022-08-25T12:07:06.893Z,6.35
2022-08-25T12:09:54.875Z,6.13
2022-08-25T12:12:56.538Z,6.28
2022-08-25T12:15:42.823Z,6.07
2022-08-25T12:18:16.431Z,6.05
2022-08-25T12:20:57.401Z,6.50
2022-08-25T12:23:46.399Z,6.50
2022-08-25T12:26:38.260Z,6.35
2022-08-25T12:29:24.301Z,6.72
2022-08-25T12:31:56.861Z,5.55
2022-08-25T12:34:46.961Z,6.30
2022-08-25T12:37:19.666Z,6.60
2022-08-25T12:39:50.204Z,6.88
2022-08-25T12:42:29.712Z,7.10
2022-08-25T12:45:11.168Z,6.82
2022-08-25T12:47:38.424Z,6.70
2022-08-25T12:50:40.868Z,7.00
2022-08-25T12:53:12.524Z,6.43
2022-08-25T12:55:46.340Z,5.70
2022-08-25T12:58:12.920Z,5.88
2022-08-25T13:01:01.622Z,6.07
2022-08-25T13:03:54.579Z,5.80
2022-08-25T13:06:50.848Z,6.35
2022-08-25T13:09:42.252Z,7.57
2022-08-25T13:12:17.385Z,6.78
2022-08-25T13:14:45.790Z,6.65
2022-08-25T13:17:24.376Z,6.40
2022-08-25T13:19:50.915Z,6.72
2022-08-25T13:22:19.576Z,6.30
2022-08-25T13:24:50.796Z,6.63
2022-08-25T13:27:27.857Z,6.30
2022-08-25T13:29:59.723Z,7.53
2022-08-25T13:32:36.003Z,6.57
2022-08-25T13:35:34.617Z,6.75
2022-08-25T13:38:19.223Z,6.97
2022-08-25T13:40:45.654Z,6.88
2022-08-25T13:43:15.024Z,7.20
2022-08-25T13:45:47.788Z,6.47
2022-08-25T13:48:36.149Z,7.03
2022-08-25T13:51:18.953Z,6.63
2022-08-25T13:53:50.862Z,7.40
2022-08-25T13:56:31.147Z,7.20
2022-08-25T13:59:01.772Z,7.10
2022-08-25T14:01:48.100Z,7.45
2022-08-25T14:04:24.136Z,6.57
2022-08-25T14:07:20.172Z,7.07
2022-08-25T14:09:53.567Z,6.55
2022-08-25T14:12:47.910Z,6.63
2022-08-25T14:15:22.135Z,6.75
2022-08-25T14:18:01.811Z,7.30
2022-08-25T14:20:31.672Z,6.65
2022-08-25T14:23:12.804Z,6.70
2022-08-25T14:25:45.743Z,7.03
2022-08-25T14:28:15.749Z,5.97
2022-08-25T14:30:51.816Z,9.15
2022-08-25T14:33:21.268Z,7.85
2022-08-25T14:35:49.730Z,7.28
2022-08-25T14:38:18.749Z,7.20
2022-08-25T14:40:48.010Z,7.30
2022-08-25T14:43:15.360Z,7.10
2022-08-25T14:45:44.151Z,7.43
2022-08-25T14:50:46.521Z,7.32
2022-08-25T14:53:13.207Z,6.20
2022-08-25T14:55:39.908Z,7.10
2022-08-25T14:58:07.066Z,7.57
2022-08-25T15:00:40.450Z,7.10
2022-08-25T15:03:07.531Z,7.57
2022-08-25T15:05:34.291Z,7.40
2022-08-25T15:08:19.532Z,7.80
2022-08-25T15:10:47.306Z,6.82
2022-08-25T15:13:14.994Z,7.03
2022-08-25T15:15:52.509Z,6.88
2022-08-25T15:18:21.046Z,7.68
2022-08-25T15:20:50.051Z,7.82
2022-08-25T15:23:18.356Z,7.13
2022-08-25T15:25:47.243Z,6.65
2022-08-25T15:28:17.396Z,7.22
2022-08-25T15:30:45.178Z,6.60
2022-08-25T15:33:13.190Z,6.95
2022-08-25T15:35:40.429Z,6.47
2022-08-25T15:38:08.028Z,7.13
2022-08-25T15:40:35.201Z,6.55
2022-08-25T15:43:01.682Z,6.43
2022-08-25T15:45:29.482Z,6.57
2022-08-25T15:47:57.287Z,6.10
2022-08-25T15:50:26.087Z,6.85
2022-08-25T15:52:52.813Z,7.07
2022-08-25T15:55:19.953Z,7.35
2022-08-25T15:57:47.759Z,7.35
2022-08-25T16:00:17.973Z,7.10
2022-08-25T16:02:45.500Z,7.28
2022-08-25T16:05:13.662Z,7.03
2022-08-25T16:07:42.592Z,7.23
2022-08-25T16:10:09.659Z,6.72
2022-08-25T16:12:37.943Z,6.80
2022-08-25T16:15:04.990Z,6.35
2022-08-25T16:17:32.037Z,7.25
2022-08-25T16:19:58.562Z,6.53
2022-08-25T16:22:25.442Z,6.38
2022-08-25T16:24:52.509Z,6.10
2022-08-25T16:27:19.852Z,6.30
2022-08-25T16:29:47.212Z,6.35
2022-08-25T16:32:14.821Z,5.75
2022-08-25T16:34:44.215Z,6.53
2022-08-25T16:37:11.499Z,6.15
2022-08-25T16:39:41.304Z,6.40
2022-08-25T16:42:07.817Z,6.40
2022-08-25T16:44:34.445Z,6.07
2022-08-25T16:47:01.388Z,6.38
2022-08-25T16:49:27.898Z,5.90
2022-08-25T16:51:56.996Z,5.45
2022-08-25T16:54:51.335Z,6.83
2022-08-25T16:57:17.722Z,6.03
2022-08-25T16:59:44.490Z,6.60
2022-08-25T17:02:12.012Z,6.68
2022-08-25T17:04:38.501Z,7.18
2022-08-25T17:07:05.126Z,6.20
2022-08-25T17:09:31.538Z,6.00
2022-08-25T17:11:58.050Z,6.85
2022-08-25T17:14:25.502Z,6.25
2022-08-25T17:16:55.022Z,5.85
2022-08-25T17:19:23.602Z,6.22
2022-08-25T17:21:50.927Z,6.03
2022-08-25T17:24:17.683Z,5.32
2022-08-25T17:26:47.178Z,5.30
2022-08-25T17:29:13.694Z,6.25
2022-08-25T17:31:40.561Z,6.43
2022-08-25T17:34:10.463Z,6.28
2022-08-25T17:36:37.195Z,6.33
2022-08-25T17:39:04.345Z,5.57
2022-08-25T17:41:31.799Z,5.57
2022-08-25T17:43:58.712Z,6.55
2022-08-25T17:46:25.350Z,6.13
2022-08-25T17:48:52.635Z,7.50
2022-08-25T17:51:19.951Z,6.60
2022-08-25T17:53:48.779Z,6.28
2022-08-25T17:56:17.653Z,5.88
2022-08-25T17:58:45.310Z,6.03
2022-08-25T18:01:24.169Z,6.10
2022-08-25T18:03:51.342Z,6.07
2022-08-25T18:06:19.368Z,5.40
2022-08-25T18:08:51.253Z,5.35
2022-08-25T18:11:19.674Z,5.90
2022-08-25T18:13:46.731Z,6.43
2022-08-25T18:16:13.315Z,6.47
2022-08-25T18:18:40.585Z,6.57
2022-08-25T18:21:16.431Z,5.95
2022-08-25T18:23:43.570Z,6.93
2022-08-25T18:26:12.952Z,5.50
2022-08-25T18:28:40.033Z,7.47
2022-08-25T18:31:08.427Z,6.05
2022-08-25T18:33:35.830Z,6.28
2022-08-25T18:36:02.428Z,6.35
2022-08-25T18:38:47.666Z,6.32
2022-08-25T18:41:14.365Z,6.80
2022-08-25T18:43:40.778Z,6.18
2022-08-25T18:46:08.186Z,6.50
2022-08-25T18:48:34.922Z,7.65
2022-08-25T18:51:02.046Z,7.18
2022-08-25T18:53:37.204Z,6.57
2022-08-25T18:56:16.081Z,7.03
2022-08-25T18:58:42.488Z,6.53
2022-08-25T19:01:13.601Z,6.93
2022-08-25T19:06:06.778Z,6.57
2022-08-25T19:08:33.203Z,7.93
2022-08-25T19:10:59.588Z,7.45
2022-08-25T19:13:26.117Z,8.10
2022-08-25T19:15:52.769Z,7.50
2022-08-25T19:18:26.160Z,7.57
2022-08-25T19:20:55.929Z,7.68
2022-08-25T19:23:22.357Z,7.63
2022-08-25T19:25:48.807Z,6.85
2022-08-25T19:28:16.703Z,6.38
2022-08-25T19:30:49.838Z,6.97
2022-08-25T19:33:42.117Z,7.07
2022-08-25T19:36:08.665Z,7.78
2022-08-25T19:38:36.091Z,6.57
2022-08-25T19:41:14.285Z,7.13
2022-08-25T19:43:55.713Z,6.95
2022-08-25T19:46:32.800Z,6.38
2022-08-25T19:49:06.823Z,7.40
2022-08-25T19:51:36.746Z,7.30
2022-08-25T19:54:04.073Z,6.82
2022-08-25T19:56:32.420Z,6.85
2022-08-25T19:58:59.653Z,6.85
2022-08-25T20:01:26.138Z,6.90
2022-08-25T20:03:52.625Z,6.45
2022-08-25T20:06:19.470Z,6.35
2022-08-25T20:08:45.926Z,6.43
2022-08-25T20:11:12.381Z,6.32
2022-08-25T20:13:38.740Z,6.25
2022-08-25T20:16:05.601Z,6.47
2022-08-25T20:18:32.647Z,6.43
2022-08-25T20:21:00.351Z,6.43
2022-08-25T20:23:46.053Z,6.13
2022-08-25T20:26:12.466Z,6.38
2022-08-25T20:28:42.148Z,6.63
2022-08-25T20:31:09.103Z,6.65
2022-08-25T20:33:35.956Z,7.75
2022-08-25T20:36:04.603Z,6.30
2022-08-25T20:38:31.926Z,7.18
2022-08-25T20:41:01.205Z,6.95
2022-08-25T20:43:30.573Z,6.72
2022-08-25T20:46:04.954Z,6.38
2022-08-25T20:48:32.148Z,6.43
2022-08-25T20:50:58.618Z,6.65
2022-08-25T20:53:25.641Z,6.38
2022-08-25T20:55:52.133Z,6.88
2022-08-25T20:58:18.768Z,6.88
2022-08-25T21:00:45.786Z,6.53
2022-08-25T21:03:12.289Z,6.93
2022-08-25T21:05:40.402Z,6.80
2022-08-25T21:08:08.065Z,6.80
2022-08-25T21:10:34.810Z,6.47
2022-08-25T21:13:01.270Z,6.55
2022-08-25T21:15:28.306Z,7.40
2022-08-25T21:17:55.358Z,6.85
2022-08-25T21:20:26.232Z,6.45
2022-08-25T21:25:20.192Z,6.78
2022-08-25T21:27:48.046Z,6.68
2022-08-25T21:30:15.989Z,6.68
2022-08-25T21:32:53.685Z,7.40
2022-08-25T21:35:22.490Z,6.90
2022-08-25T21:37:53.048Z,7.25
2022-08-25T21:40:21.106Z,7.15
2022-08-25T21:42:48.647Z,6.72
2022-08-25T21:45:15.343Z,6.78
2022-08-25T21:47:42.446Z,7.05
2022-08-25T21:50:10.623Z,6.95
2022-08-25T21:52:37.095Z,7.53
2022-08-25T21:55:04.402Z,7.20
2022-08-25T21:57:32.132Z,7.20
2022-08-25T22:00:06.188Z,6.97
2022-08-25T22:02:38.581Z,7.10
2022-08-25T22:05:09.292Z,6.63
2022-08-25T22:07:40.422Z,6.80
2022-08-25T22:10:09.496Z,6.55
2022-08-25T22:12:43.649Z,7.50
2022-08-25T22:15:13.690Z,6.63
2022-08-25T22:17:40.480Z,7.07
2022-08-25T22:20:08.800Z,6.60
2022-08-25T22:22:35.950Z,6.80
2022-08-25T22:25:02.560Z,6.68
2022-08-25T22:27:30.277Z,6.95
2022-08-25T22:29:56.918Z,7.13
2022-08-25T22:32:23.408Z,7.82
2022-08-25T22:34:50.349Z,6.82
2022-08-25T22:37:17.886Z,7.20
2022-08-25T22:39:45.685Z,7.18
2022-08-25T22:42:12.450Z,7.47
2022-08-25T22:44:39.887Z,7.53
2022-08-25T22:47:06.886Z,6.90
2022-08-25T22:49:35.320Z,7.15
2022-08-25T22:52:02.394Z,7.78
2022-08-25T22:54:29.825Z,6.78
2022-08-25T22:56:56.406Z,7.13
2022-08-25T22:59:23.090Z,6.80
2022-08-25T23:01:52.286Z,7.88
2022-08-25T23:04:19.163Z,7.35
2022-08-25T23:06:46.366Z,7.22
2022-08-25T23:09:13.894Z,7.40
2022-08-25T23:11:40.791Z,7.63
2022-08-25T23:14:10.780Z,7.72
2022-08-25T23:16:39.159Z,7.30
2022-08-25T23:19:05.791Z,7.70
2022-08-25T23:21:52.542Z,8.05
2022-08-25T23:24:27.103Z,7.43
2022-08-25T23:27:01.937Z,7.50
2022-08-25T23:29:29.789Z,7.80
2022-08-25T23:31:57.956Z,7.68
2022-08-25T23:34:25.411Z,7.68
2022-08-25T23:36:52.138Z,7.63
2022-08-25T23:39:18.613Z,7.75
2022-08-25T23:41:48.801Z,7.00
2022-08-25T23:44:17.307Z,7.45
2022-08-25T23:46:45.273Z,8.10
2022-08-25T23:49:14.216Z,7.35
2022-08-25T23:54:12.115Z,7.88
2022-08-25T23:56:44.551Z,8.13
2022-08-25T23:59:20.045Z,8.75
